sensor_id;sensor_type;location;lat;lon;timestamp;P1;durP1;ratioP1;P2;durP2;ratioP2
5010;SDS011;2524;54.364;10.072;2022-12-18T00:01:01;12.33;;;11.03;;
5010;SDS011;2524;54.364;10.072;2022-12-18T00:03:31;15.77;;;13.00;;
5010;SDS011;2524;54.364;10.072;2022-12-18T00:05:58;12.50;;;11.20;;
5010;SDS011;2524;54.364;10.072;2022-12-18T00:08:23;13.93;;;12.43;;
5010;SDS011;2524;54.364;10.072;2022-12-18T00:10:49;15.93;;;14.07;;
5010;SDS011;2524;54.364;10.072;2022-12-18T00:13:15;18.17;;;15.30;;
5010;SDS011;2524;54.364;10.072;2022-12-18T00:15:40;21.00;;;15.77;;
5010;SDS011;2524;54.364;10.072;2022-12-18T00:18:06;17.13;;;14.60;;
5010;SDS011;2524;54.364;10.072;2022-12-18T00:20:35;13.27;;;11.87;;
5010;SDS011;2524;54.364;10.072;2022-12-18T00:23:02;13.40;;;12.00;;
5010;SDS011;2524;54.364;10.072;2022-12-18T00:25:28;13.60;;;12.10;;
5010;SDS011;2524;54.364;10.072;2022-12-18T00:27:53;17.63;;;13.53;;
5010;SDS011;2524;54.364;10.072;2022-12-18T00:30:19;13.57;;;12.00;;
5010;SDS011;2524;54.364;10.072;2022-12-18T00:32:44;16.23;;;13.03;;
5010;SDS011;2524;54.364;10.072;2022-12-18T00:35:10;17.63;;;14.13;;
5010;SDS011;2524;54.364;10.072;2022-12-18T00:37:36;13.50;;;12.10;;
5010;SDS011;2524;54.364;10.072;2022-12-18T00:40:02;11.27;;;10.17;;
5010;SDS011;2524;54.364;10.072;2022-12-18T00:42:28;15.47;;;13.27;;
5010;SDS011;2524;54.364;10.072;2022-12-18T00:45:12;12.13;;;10.97;;
5010;SDS011;2524;54.364;10.072;2022-12-18T00:47:38;15.20;;;12.87;;
5010;SDS011;2524;54.364;10.072;2022-12-18T00:50:03;12.87;;;11.57;;
5010;SDS011;2524;54.364;10.072;2022-12-18T00:52:29;12.70;;;11.47;;
5010;SDS011;2524;54.364;10.072;2022-12-18T00:54:55;11.90;;;10.57;;
5010;SDS011;2524;54.364;10.072;2022-12-18T00:57:20;11.60;;;10.60;;
5010;SDS011;2524;54.364;10.072;2022-12-18T00:59:46;8.93;;;8.13;;
5010;SDS011;2524;54.364;10.072;2022-12-18T01:02:12;12.37;;;11.10;;
5010;SDS011;2524;54.364;10.072;2022-12-18T01:04:37;12.13;;;10.93;;
5010;SDS011;2524;54.364;10.072;2022-12-18T01:07:03;13.07;;;11.73;;
5010;SDS011;2524;54.364;10.072;2022-12-18T01:09:28;18.33;;;14.07;;
5010;SDS011;2524;54.364;10.072;2022-12-18T01:11:54;12.77;;;11.47;;
5010;SDS011;2524;54.364;10.072;2022-12-18T01:14:20;12.60;;;11.30;;
5010;SDS011;2524;54.364;10.072;2022-12-18T01:16:45;18.40;;;13.60;;
5010;SDS011;2524;54.364;10.072;2022-12-18T01:19:11;13.77;;;12.37;;
5010;SDS011;2524;54.364;10.072;2022-12-18T01:21:36;15.93;;;13.57;;
5010;SDS011;2524;54.364;10.072;2022-12-18T01:24:02;16.23;;;12.93;;
5010;SDS011;2524;54.364;10.072;2022-12-18T01:26:31;14.87;;;13.27;;
5010;SDS011;2524;54.364;10.072;2022-12-18T01:28:56;14.27;;;12.73;;
5010;SDS011;2524;54.364;10.072;2022-12-18T01:31:24;18.00;;;14.50;;
5010;SDS011;2524;54.364;10.072;2022-12-18T01:33:54;14.43;;;12.50;;
5010;SDS011;2524;54.364;10.072;2022-12-18T01:36:24;20.40;;;15.13;;
5010;SDS011;2524;54.364;10.072;2022-12-18T01:38:54;17.93;;;14.63;;
5010;SDS011;2524;54.364;10.072;2022-12-18T01:41:22;12.90;;;11.60;;
5010;SDS011;2524;54.364;10.072;2022-12-18T01:43:53;14.73;;;12.30;;
5010;SDS011;2524;54.364;10.072;2022-12-18T01:46:22;15.60;;;13.07;;
5010;SDS011;2524;54.364;10.072;2022-12-18T01:48:56;14.00;;;12.03;;
5010;SDS011;2524;54.364;10.072;2022-12-18T01:51:23;12.07;;;10.87;;
5010;SDS011;2524;54.364;10.072;2022-12-18T01:53:49;12.50;;;11.20;;
5010;SDS011;2524;54.364;10.072;2022-12-18T01:56:16;18.87;;;14.60;;
5010;SDS011;2524;54.364;10.072;2022-12-18T02:01:15;15.17;;;13.47;;
5010;SDS011;2524;54.364;10.072;2022-12-18T02:03:42;18.67;;;15.13;;
5010;SDS011;2524;54.364;10.072;2022-12-18T02:06:13;15.60;;;12.53;;
5010;SDS011;2524;54.364;10.072;2022-12-18T02:08:57;17.50;;;12.13;;
5010;SDS011;2524;54.364;10.072;2022-12-18T02:14:23;11.40;;;10.27;;
5010;SDS011;2524;54.364;10.072;2022-12-18T02:17:10;14.80;;;12.00;;
5010;SDS011;2524;54.364;10.072;2022-12-18T02:19:47;14.13;;;11.50;;
5010;SDS011;2524;54.364;10.072;2022-12-18T02:28:17;18.47;;;13.97;;
5010;SDS011;2524;54.364;10.072;2022-12-18T02:30:48;12.47;;;11.17;;
5010;SDS011;2524;54.364;10.072;2022-12-18T02:33:15;13.70;;;11.70;;
5010;SDS011;2524;54.364;10.072;2022-12-18T02:35:42;15.30;;;11.80;;
5010;SDS011;2524;54.364;10.072;2022-12-18T02:38:10;14.07;;;12.53;;
5010;SDS011;2524;54.364;10.072;2022-12-18T02:40:36;12.30;;;10.97;;
5010;SDS011;2524;54.364;10.072;2022-12-18T02:43:08;12.97;;;10.97;;
5010;SDS011;2524;54.364;10.072;2022-12-18T02:45:34;13.60;;;12.17;;
5010;SDS011;2524;54.364;10.072;2022-12-18T02:48:00;13.73;;;12.30;;
5010;SDS011;2524;54.364;10.072;2022-12-18T02:56:25;12.83;;;11.00;;
5010;SDS011;2524;54.364;10.072;2022-12-18T03:04:16;12.20;;;10.90;;
5010;SDS011;2524;54.364;10.072;2022-12-18T03:06:58;13.53;;;12.13;;
5010;SDS011;2524;54.364;10.072;2022-12-18T03:09:29;11.80;;;10.60;;
5010;SDS011;2524;54.364;10.072;2022-12-18T03:12:22;11.90;;;10.70;;
5010;SDS011;2524;54.364;10.072;2022-12-18T03:17:30;14.90;;;12.40;;
5010;SDS011;2524;54.364;10.072;2022-12-18T03:19:58;13.70;;;11.07;;
5010;SDS011;2524;54.364;10.072;2022-12-18T03:22:29;15.40;;;13.57;;
5010;SDS011;2524;54.364;10.072;2022-12-18T03:24:57;13.30;;;11.90;;
5010;SDS011;2524;54.364;10.072;2022-12-18T03:27:25;13.60;;;12.13;;
5010;SDS011;2524;54.364;10.072;2022-12-18T03:29:56;12.13;;;10.70;;
5010;SDS011;2524;54.364;10.072;2022-12-18T03:35:31;10.50;;;9.50;;
5010;SDS011;2524;54.364;10.072;2022-12-18T03:38:01;11.10;;;10.00;;
5010;SDS011;2524;54.364;10.072;2022-12-18T03:40:31;14.77;;;12.23;;
5010;SDS011;2524;54.364;10.072;2022-12-18T03:43:09;11.07;;;9.83;;
5010;SDS011;2524;54.364;10.072;2022-12-18T03:45:40;14.07;;;10.87;;
5010;SDS011;2524;54.364;10.072;2022-12-18T03:48:18;11.77;;;10.50;;
5010;SDS011;2524;54.364;10.072;2022-12-18T03:51:12;11.30;;;10.10;;
5010;SDS011;2524;54.364;10.072;2022-12-18T03:53:57;9.37;;;8.57;;
5010;SDS011;2524;54.364;10.072;2022-12-18T03:56:26;10.07;;;9.13;;
5010;SDS011;2524;54.364;10.072;2022-12-18T03:58:55;11.47;;;10.27;;
5010;SDS011;2524;54.364;10.072;2022-12-18T04:01:29;13.77;;;11.30;;
5010;SDS011;2524;54.364;10.072;2022-12-18T04:03:59;13.17;;;11.83;;
5010;SDS011;2524;54.364;10.072;2022-12-18T04:06:26;13.73;;;12.17;;
5010;SDS011;2524;54.364;10.072;2022-12-18T04:08:53;12.77;;;11.47;;
5010;SDS011;2524;54.364;10.072;2022-12-18T04:11:19;12.30;;;10.90;;
5010;SDS011;2524;54.364;10.072;2022-12-18T04:13:44;12.77;;;11.10;;
5010;SDS011;2524;54.364;10.072;2022-12-18T04:16:10;11.27;;;9.93;;
5010;SDS011;2524;54.364;10.072;2022-12-18T04:18:36;10.97;;;9.87;;
5010;SDS011;2524;54.364;10.072;2022-12-18T04:21:01;13.03;;;11.50;;
5010;SDS011;2524;54.364;10.072;2022-12-18T04:23:27;13.20;;;10.97;;
5010;SDS011;2524;54.364;10.072;2022-12-18T04:25:53;11.77;;;10.57;;
5010;SDS011;2524;54.364;10.072;2022-12-18T04:28:19;11.33;;;10.13;;
5010;SDS011;2524;54.364;10.072;2022-12-18T04:30:45;12.03;;;10.47;;
5010;SDS011;2524;54.364;10.072;2022-12-18T04:33:13;11.93;;;10.63;;
5010;SDS011;2524;54.364;10.072;2022-12-18T04:35:42;12.53;;;11.00;;
5010;SDS011;2524;54.364;10.072;2022-12-18T04:38:08;12.93;;;10.67;;
5010;SDS011;2524;54.364;10.072;2022-12-18T04:40:35;12.90;;;10.73;;
5010;SDS011;2524;54.364;10.072;2022-12-18T04:43:00;10.50;;;9.50;;
5010;SDS011;2524;54.364;10.072;2022-12-18T04:45:26;10.13;;;9.23;;
5010;SDS011;2524;54.364;10.072;2022-12-18T04:47:52;10.63;;;9.57;;
5010;SDS011;2524;54.364;10.072;2022-12-18T04:50:17;12.83;;;10.50;;
5010;SDS011;2524;54.364;10.072;2022-12-18T04:52:43;11.20;;;10.10;;
5010;SDS011;2524;54.364;10.072;2022-12-18T04:55:08;8.30;;;7.60;;
5010;SDS011;2524;54.364;10.072;2022-12-18T04:57:34;13.77;;;11.67;;
5010;SDS011;2524;54.364;10.072;2022-12-18T05:00:00;10.73;;;9.37;;
5010;SDS011;2524;54.364;10.072;2022-12-18T05:02:25;10.33;;;8.70;;
5010;SDS011;2524;54.364;10.072;2022-12-18T05:04:51;8.80;;;8.07;;
5010;SDS011;2524;54.364;10.072;2022-12-18T05:07:16;8.60;;;7.90;;
5010;SDS011;2524;54.364;10.072;2022-12-18T05:09:42;8.77;;;8.00;;
5010;SDS011;2524;54.364;10.072;2022-12-18T05:12:07;13.87;;;11.23;;
5010;SDS011;2524;54.364;10.072;2022-12-18T05:14:33;12.90;;;11.60;;
5010;SDS011;2524;54.364;10.072;2022-12-18T05:16:59;10.77;;;9.70;;
5010;SDS011;2524;54.364;10.072;2022-12-18T05:19:24;10.27;;;9.33;;
5010;SDS011;2524;54.364;10.072;2022-12-18T05:21:50;10.77;;;9.77;;
5010;SDS011;2524;54.364;10.072;2022-12-18T05:24:15;8.80;;;8.00;;
5010;SDS011;2524;54.364;10.072;2022-12-18T05:26:41;12.37;;;10.53;;
5010;SDS011;2524;54.364;10.072;2022-12-18T05:29:06;11.17;;;10.00;;
5010;SDS011;2524;54.364;10.072;2022-12-18T05:31:32;11.57;;;9.50;;
5010;SDS011;2524;54.364;10.072;2022-12-18T05:33:57;13.63;;;10.80;;
5010;SDS011;2524;54.364;10.072;2022-12-18T05:36:23;12.90;;;11.20;;
5010;SDS011;2524;54.364;10.072;2022-12-18T05:38:49;9.23;;;8.33;;
5010;SDS011;2524;54.364;10.072;2022-12-18T05:41:14;11.03;;;9.83;;
5010;SDS011;2524;54.364;10.072;2022-12-18T05:43:40;9.40;;;8.50;;
5010;SDS011;2524;54.364;10.072;2022-12-18T05:46:07;8.40;;;7.60;;
5010;SDS011;2524;54.364;10.072;2022-12-18T05:48:36;8.80;;;8.00;;
5010;SDS011;2524;54.364;10.072;2022-12-18T05:51:05;10.60;;;9.50;;
5010;SDS011;2524;54.364;10.072;2022-12-18T05:53:32;7.97;;;7.27;;
5010;SDS011;2524;54.364;10.072;2022-12-18T05:56:02;11.60;;;9.60;;
5010;SDS011;2524;54.364;10.072;2022-12-18T05:58:29;10.07;;;9.07;;
5010;SDS011;2524;54.364;10.072;2022-12-18T06:00:56;10.00;;;9.10;;
5010;SDS011;2524;54.364;10.072;2022-12-18T06:03:21;8.90;;;8.07;;
5010;SDS011;2524;54.364;10.072;2022-12-18T06:05:47;10.10;;;9.10;;
5010;SDS011;2524;54.364;10.072;2022-12-18T06:08:13;10.20;;;9.03;;
5010;SDS011;2524;54.364;10.072;2022-12-18T06:10:39;7.30;;;6.70;;
5010;SDS011;2524;54.364;10.072;2022-12-18T06:13:05;10.63;;;9.53;;
5010;SDS011;2524;54.364;10.072;2022-12-18T06:15:31;9.63;;;8.73;;
5010;SDS011;2524;54.364;10.072;2022-12-18T06:17:57;10.63;;;9.50;;
5010;SDS011;2524;54.364;10.072;2022-12-18T06:20:23;9.67;;;8.77;;
5010;SDS011;2524;54.364;10.072;2022-12-18T06:22:49;9.20;;;8.40;;
5010;SDS011;2524;54.364;10.072;2022-12-18T06:25:14;9.37;;;8.47;;
5010;SDS011;2524;54.364;10.072;2022-12-18T06:27:40;9.20;;;8.30;;
5010;SDS011;2524;54.364;10.072;2022-12-18T06:30:06;10.60;;;9.60;;
5010;SDS011;2524;54.364;10.072;2022-12-18T06:32:32;10.00;;;8.27;;
5010;SDS011;2524;54.364;10.072;2022-12-18T06:34:57;10.50;;;9.50;;
5010;SDS011;2524;54.364;10.072;2022-12-18T06:37:23;9.27;;;8.30;;
5010;SDS011;2524;54.364;10.072;2022-12-18T06:39:52;8.87;;;8.17;;
5010;SDS011;2524;54.364;10.072;2022-12-18T06:42:18;9.13;;;8.33;;
5010;SDS011;2524;54.364;10.072;2022-12-18T06:44:46;10.73;;;9.50;;
5010;SDS011;2524;54.364;10.072;2022-12-18T06:47:12;9.97;;;8.97;;
5010;SDS011;2524;54.364;10.072;2022-12-18T06:49:38;9.50;;;8.60;;
5010;SDS011;2524;54.364;10.072;2022-12-18T06:52:03;9.77;;;8.77;;
5010;SDS011;2524;54.364;10.072;2022-12-18T06:54:29;9.30;;;8.40;;
5010;SDS011;2524;54.364;10.072;2022-12-18T06:56:55;9.47;;;8.57;;
5010;SDS011;2524;54.364;10.072;2022-12-18T06:59:21;12.23;;;10.27;;
5010;SDS011;2524;54.364;10.072;2022-12-18T07:01:46;10.57;;;9.53;;
5010;SDS011;2524;54.364;10.072;2022-12-18T07:04:12;9.17;;;8.30;;
5010;SDS011;2524;54.364;10.072;2022-12-18T07:06:38;9.20;;;8.30;;
5010;SDS011;2524;54.364;10.072;2022-12-18T07:09:03;11.43;;;9.33;;
5010;SDS011;2524;54.364;10.072;2022-12-18T07:11:29;10.53;;;9.50;;
5010;SDS011;2524;54.364;10.072;2022-12-18T07:13:57;8.53;;;7.73;;
5010;SDS011;2524;54.364;10.072;2022-12-18T07:16:25;9.20;;;8.40;;
5010;SDS011;2524;54.364;10.072;2022-12-18T07:18:50;9.03;;;8.20;;
5010;SDS011;2524;54.364;10.072;2022-12-18T07:21:18;10.17;;;8.90;;
5010;SDS011;2524;54.364;10.072;2022-12-18T07:23:44;10.50;;;8.60;;
5010;SDS011;2524;54.364;10.072;2022-12-18T07:26:13;7.97;;;7.27;;
5010;SDS011;2524;54.364;10.072;2022-12-18T07:28:40;8.87;;;7.97;;
5010;SDS011;2524;54.364;10.072;2022-12-18T07:31:07;8.80;;;8.00;;
5010;SDS011;2524;54.364;10.072;2022-12-18T07:33:35;11.00;;;9.77;;
5010;SDS011;2524;54.364;10.072;2022-12-18T07:36:01;8.23;;;7.57;;
5010;SDS011;2524;54.364;10.072;2022-12-18T07:38:31;9.63;;;8.67;;
5010;SDS011;2524;54.364;10.072;2022-12-18T07:41:20;8.30;;;7.50;;
5010;SDS011;2524;54.364;10.072;2022-12-18T07:43:45;8.90;;;8.10;;
5010;SDS011;2524;54.364;10.072;2022-12-18T07:46:11;6.80;;;6.20;;
5010;SDS011;2524;54.364;10.072;2022-12-18T07:48:41;8.37;;;7.00;;
5010;SDS011;2524;54.364;10.072;2022-12-18T07:51:07;8.07;;;7.30;;
5010;SDS011;2524;54.364;10.072;2022-12-18T07:53:34;8.30;;;7.60;;
5010;SDS011;2524;54.364;10.072;2022-12-18T07:56:01;8.57;;;7.87;;
5010;SDS011;2524;54.364;10.072;2022-12-18T07:58:30;8.20;;;7.53;;
5010;SDS011;2524;54.364;10.072;2022-12-18T08:01:09;7.33;;;6.73;;
5010;SDS011;2524;54.364;10.072;2022-12-18T08:03:36;8.10;;;7.40;;
5010;SDS011;2524;54.364;10.072;2022-12-18T08:06:03;10.03;;;7.90;;
5010;SDS011;2524;54.364;10.072;2022-12-18T08:08:31;7.07;;;6.50;;
5010;SDS011;2524;54.364;10.072;2022-12-18T08:10:57;6.30;;;5.83;;
5010;SDS011;2524;54.364;10.072;2022-12-18T08:13:23;6.73;;;6.23;;
5010;SDS011;2524;54.364;10.072;2022-12-18T08:16:02;7.90;;;6.97;;
5010;SDS011;2524;54.364;10.072;2022-12-18T08:18:29;7.47;;;6.83;;
5010;SDS011;2524;54.364;10.072;2022-12-18T08:21:02;9.03;;;8.20;;
5010;SDS011;2524;54.364;10.072;2022-12-18T08:23:42;9.93;;;8.87;;
5010;SDS011;2524;54.364;10.072;2022-12-18T08:26:08;8.20;;;7.40;;
5010;SDS011;2524;54.364;10.072;2022-12-18T08:28:35;9.00;;;8.30;;
5010;SDS011;2524;54.364;10.072;2022-12-18T08:31:00;9.17;;;7.87;;
5010;SDS011;2524;54.364;10.072;2022-12-18T08:33:26;10.33;;;9.23;;
5010;SDS011;2524;54.364;10.072;2022-12-18T08:35:52;7.80;;;7.10;;
5010;SDS011;2524;54.364;10.072;2022-12-18T08:38:17;7.83;;;7.23;;
5010;SDS011;2524;54.364;10.072;2022-12-18T08:40:43;9.80;;;8.70;;
5010;SDS011;2524;54.364;10.072;2022-12-18T08:43:09;9.20;;;8.30;;
5010;SDS011;2524;54.364;10.072;2022-12-18T08:45:54;7.40;;;6.77;;
5010;SDS011;2524;54.364;10.072;2022-12-18T08:48:19;7.87;;;7.17;;
5010;SDS011;2524;54.364;10.072;2022-12-18T08:50:58;8.17;;;7.37;;
5010;SDS011;2524;54.364;10.072;2022-12-18T08:53:24;7.00;;;6.30;;
5010;SDS011;2524;54.364;10.072;2022-12-18T08:55:51;7.87;;;7.27;;
5010;SDS011;2524;54.364;10.072;2022-12-18T08:58:16;7.47;;;6.77;;
5010;SDS011;2524;54.364;10.072;2022-12-18T09:00:42;7.73;;;7.03;;
5010;SDS011;2524;54.364;10.072;2022-12-18T09:03:12;9.70;;;8.70;;
5010;SDS011;2524;54.364;10.072;2022-12-18T09:05:42;8.33;;;7.63;;
5010;SDS011;2524;54.364;10.072;2022-12-18T09:08:08;8.63;;;7.83;;
5010;SDS011;2524;54.364;10.072;2022-12-18T09:10:34;8.27;;;7.57;;
5010;SDS011;2524;54.364;10.072;2022-12-18T09:13:06;7.60;;;6.93;;
5010;SDS011;2524;54.364;10.072;2022-12-18T09:15:32;9.43;;;8.53;;
5010;SDS011;2524;54.364;10.072;2022-12-18T09:17:58;9.63;;;8.60;;
5010;SDS011;2524;54.364;10.072;2022-12-18T09:20:23;8.73;;;7.83;;
5010;SDS011;2524;54.364;10.072;2022-12-18T09:22:49;9.80;;;8.70;;
5010;SDS011;2524;54.364;10.072;2022-12-18T09:25:15;9.00;;;8.10;;
5010;SDS011;2524;54.364;10.072;2022-12-18T09:27:40;9.97;;;8.13;;
5010;SDS011;2524;54.364;10.072;2022-12-18T09:30:06;7.80;;;7.10;;
5010;SDS011;2524;54.364;10.072;2022-12-18T09:32:32;7.70;;;7.20;;
5010;SDS011;2524;54.364;10.072;2022-12-18T09:34:57;8.70;;;7.90;;
5010;SDS011;2524;54.364;10.072;2022-12-18T09:37:23;8.80;;;8.03;;
5010;SDS011;2524;54.364;10.072;2022-12-18T09:39:49;10.13;;;9.10;;
5010;SDS011;2524;54.364;10.072;2022-12-18T09:42:17;8.80;;;8.00;;
5010;SDS011;2524;54.364;10.072;2022-12-18T09:44:49;8.70;;;7.87;;
5010;SDS011;2524;54.364;10.072;2022-12-18T09:47:18;7.50;;;6.80;;
5010;SDS011;2524;54.364;10.072;2022-12-18T09:49:46;7.10;;;6.60;;
5010;SDS011;2524;54.364;10.072;2022-12-18T09:52:21;5.90;;;5.50;;
5010;SDS011;2524;54.364;10.072;2022-12-18T09:57:52;9.10;;;8.20;;
5010;SDS011;2524;54.364;10.072;2022-12-18T10:00:22;7.90;;;7.20;;
5010;SDS011;2524;54.364;10.072;2022-12-18T10:02:53;10.07;;;7.60;;
5010;SDS011;2524;54.364;10.072;2022-12-18T10:10:53;8.47;;;7.67;;
5010;SDS011;2524;54.364;10.072;2022-12-18T10:15:54;6.53;;;6.03;;
5010;SDS011;2524;54.364;10.072;2022-12-18T10:18:44;7.57;;;6.93;;
5010;SDS011;2524;54.364;10.072;2022-12-18T10:21:21;6.80;;;6.30;;
5010;SDS011;2524;54.364;10.072;2022-12-18T10:26:49;11.63;;;10.43;;
5010;SDS011;2524;54.364;10.072;2022-12-18T10:29:15;11.40;;;9.53;;
5010;SDS011;2524;54.364;10.072;2022-12-18T10:31:41;9.60;;;8.70;;
5010;SDS011;2524;54.364;10.072;2022-12-18T10:34:11;9.90;;;8.63;;
5010;SDS011;2524;54.364;10.072;2022-12-18T10:36:40;9.43;;;8.50;;
5010;SDS011;2524;54.364;10.072;2022-12-18T10:41:41;8.97;;;8.07;;
5010;SDS011;2524;54.364;10.072;2022-12-18T10:44:22;9.70;;;8.80;;
5010;SDS011;2524;54.364;10.072;2022-12-18T10:46:55;9.17;;;8.27;;
5010;SDS011;2524;54.364;10.072;2022-12-18T10:49:30;12.10;;;9.63;;
5010;SDS011;2524;54.364;10.072;2022-12-18T10:52:05;10.70;;;9.70;;
5010;SDS011;2524;54.364;10.072;2022-12-18T10:54:45;8.60;;;7.40;;
5010;SDS011;2524;54.364;10.072;2022-12-18T10:57:14;10.30;;;9.20;;
5010;SDS011;2524;54.364;10.072;2022-12-18T10:59:56;9.60;;;8.70;;
5010;SDS011;2524;54.364;10.072;2022-12-18T11:02:28;8.93;;;8.10;;
5010;SDS011;2524;54.364;10.072;2022-12-18T11:05:01;8.07;;;7.37;;
5010;SDS011;2524;54.364;10.072;2022-12-18T11:07:47;8.90;;;8.03;;
5010;SDS011;2524;54.364;10.072;2022-12-18T11:10:16;11.47;;;10.37;;
5010;SDS011;2524;54.364;10.072;2022-12-18T11:12:42;11.13;;;9.30;;
5010;SDS011;2524;54.364;10.072;2022-12-18T11:15:26;10.33;;;9.20;;
5010;SDS011;2524;54.364;10.072;2022-12-18T11:17:54;9.63;;;8.57;;
5010;SDS011;2524;54.364;10.072;2022-12-18T11:22:56;8.77;;;7.87;;
5010;SDS011;2524;54.364;10.072;2022-12-18T11:25:23;8.50;;;7.70;;
5010;SDS011;2524;54.364;10.072;2022-12-18T11:27:56;11.00;;;9.40;;
5010;SDS011;2524;54.364;10.072;2022-12-18T11:30:32;8.70;;;7.90;;
5010;SDS011;2524;54.364;10.072;2022-12-18T11:35:53;10.40;;;9.17;;
5010;SDS011;2524;54.364;10.072;2022-12-18T11:38:29;10.93;;;8.77;;
5010;SDS011;2524;54.364;10.072;2022-12-18T11:41:23;11.30;;;8.80;;
5010;SDS011;2524;54.364;10.072;2022-12-18T11:43:55;11.50;;;8.60;;
5010;SDS011;2524;54.364;10.072;2022-12-18T11:48:58;7.90;;;7.10;;
5010;SDS011;2524;54.364;10.072;2022-12-18T11:51:45;9.13;;;8.20;;
5010;SDS011;2524;54.364;10.072;2022-12-18T11:54:18;10.10;;;9.03;;
5010;SDS011;2524;54.364;10.072;2022-12-18T11:57:08;9.60;;;8.60;;
5010;SDS011;2524;54.364;10.072;2022-12-18T12:05:31;14.07;;;11.73;;
5010;SDS011;2524;54.364;10.072;2022-12-18T12:08:23;10.30;;;9.30;;
5010;SDS011;2524;54.364;10.072;2022-12-18T12:19:34;10.60;;;9.50;;
5010;SDS011;2524;54.364;10.072;2022-12-18T12:25:07;11.37;;;10.13;;
5010;SDS011;2524;54.364;10.072;2022-12-18T12:30:13;9.97;;;8.67;;
5010;SDS011;2524;54.364;10.072;2022-12-18T12:33:03;13.23;;;11.23;;
5010;SDS011;2524;54.364;10.072;2022-12-18T12:35:58;11.03;;;9.93;;
5010;SDS011;2524;54.364;10.072;2022-12-18T12:38:28;9.60;;;8.67;;
5010;SDS011;2524;54.364;10.072;2022-12-18T12:41:07;10.77;;;9.67;;
5010;SDS011;2524;54.364;10.072;2022-12-18T12:43:58;10.50;;;9.40;;
5010;SDS011;2524;54.364;10.072;2022-12-18T12:46:27;9.47;;;8.50;;
5010;SDS011;2524;54.364;10.072;2022-12-18T12:48:58;9.13;;;8.30;;
5010;SDS011;2524;54.364;10.072;2022-12-18T12:51:37;8.30;;;7.50;;
5010;SDS011;2524;54.364;10.072;2022-12-18T12:54:06;13.70;;;11.30;;
5010;SDS011;2524;54.364;10.072;2022-12-18T12:56:49;15.23;;;11.20;;
5010;SDS011;2524;54.364;10.072;2022-12-18T13:05:20;10.47;;;8.70;;
5010;SDS011;2524;54.364;10.072;2022-12-18T13:08:00;12.10;;;9.43;;
5010;SDS011;2524;54.364;10.072;2022-12-18T13:10:32;13.73;;;9.37;;
5010;SDS011;2524;54.364;10.072;2022-12-18T13:13:06;9.97;;;8.97;;
5010;SDS011;2524;54.364;10.072;2022-12-18T13:15:39;12.07;;;9.63;;
5010;SDS011;2524;54.364;10.072;2022-12-18T13:20:41;10.83;;;9.73;;
5010;SDS011;2524;54.364;10.072;2022-12-18T13:25:59;9.80;;;8.63;;
5010;SDS011;2524;54.364;10.072;2022-12-18T13:31:11;9.83;;;8.80;;
5010;SDS011;2524;54.364;10.072;2022-12-18T13:36:29;15.73;;;11.63;;
5010;SDS011;2524;54.364;10.072;2022-12-18T13:41:39;11.40;;;10.00;;
5010;SDS011;2524;54.364;10.072;2022-12-18T13:47:05;11.83;;;9.33;;
5010;SDS011;2524;54.364;10.072;2022-12-18T13:49:53;10.37;;;8.70;;
5010;SDS011;2524;54.364;10.072;2022-12-18T13:52:24;9.50;;;8.50;;
5010;SDS011;2524;54.364;10.072;2022-12-18T13:54:53;10.90;;;9.80;;
5010;SDS011;2524;54.364;10.072;2022-12-18T13:57:37;11.83;;;9.63;;
5010;SDS011;2524;54.364;10.072;2022-12-18T14:02:52;11.37;;;9.03;;
5010;SDS011;2524;54.364;10.072;2022-12-18T14:05:22;11.63;;;9.37;;
5010;SDS011;2524;54.364;10.072;2022-12-18T14:07:52;10.23;;;9.20;;
5010;SDS011;2524;54.364;10.072;2022-12-18T14:10:19;14.83;;;11.50;;
5010;SDS011;2524;54.364;10.072;2022-12-18T14:12:49;12.50;;;10.83;;
5010;SDS011;2524;54.364;10.072;2022-12-18T14:17:59;16.30;;;11.93;;
5010;SDS011;2524;54.364;10.072;2022-12-18T14:20:32;13.97;;;11.27;;
5010;SDS011;2524;54.364;10.072;2022-12-18T14:22:59;15.60;;;11.40;;
5010;SDS011;2524;54.364;10.072;2022-12-18T14:25:28;14.73;;;11.40;;
5010;SDS011;2524;54.364;10.072;2022-12-18T14:30:36;11.33;;;9.20;;
5010;SDS011;2524;54.364;10.072;2022-12-18T14:33:09;14.20;;;9.47;;
5010;SDS011;2524;54.364;10.072;2022-12-18T14:35:43;14.97;;;11.50;;
5010;SDS011;2524;54.364;10.072;2022-12-18T14:38:32;15.40;;;12.40;;
5010;SDS011;2524;54.364;10.072;2022-12-18T14:41:00;15.37;;;12.73;;
5010;SDS011;2524;54.364;10.072;2022-12-18T14:43:28;15.33;;;11.60;;
5010;SDS011;2524;54.364;10.072;2022-12-18T14:45:57;15.63;;;12.17;;
5010;SDS011;2524;54.364;10.072;2022-12-18T14:53:40;16.40;;;12.63;;
5010;SDS011;2524;54.364;10.072;2022-12-18T14:59:16;16.70;;;11.40;;
5010;SDS011;2524;54.364;10.072;2022-12-18T15:01:48;16.10;;;12.60;;
5010;SDS011;2524;54.364;10.072;2022-12-18T15:09:37;14.20;;;11.40;;
5010;SDS011;2524;54.364;10.072;2022-12-18T15:12:05;16.40;;;12.03;;
5010;SDS011;2524;54.364;10.072;2022-12-18T15:14:44;14.00;;;10.60;;
5010;SDS011;2524;54.364;10.072;2022-12-18T15:17:17;17.80;;;11.83;;
5010;SDS011;2524;54.364;10.072;2022-12-18T15:19:46;17.20;;;12.83;;
5010;SDS011;2524;54.364;10.072;2022-12-18T15:22:34;16.50;;;11.00;;
5010;SDS011;2524;54.364;10.072;2022-12-18T15:25:00;19.23;;;13.17;;
5010;SDS011;2524;54.364;10.072;2022-12-18T15:32:48;21.10;;;14.80;;
5010;SDS011;2524;54.364;10.072;2022-12-18T15:35:16;19.50;;;13.30;;
5010;SDS011;2524;54.364;10.072;2022-12-18T15:37:47;21.17;;;12.60;;
5010;SDS011;2524;54.364;10.072;2022-12-18T15:40:19;18.90;;;12.90;;
5010;SDS011;2524;54.364;10.072;2022-12-18T15:42:47;19.53;;;13.30;;
5010;SDS011;2524;54.364;10.072;2022-12-18T15:45:34;15.80;;;12.07;;
5010;SDS011;2524;54.364;10.072;2022-12-18T15:48:00;21.20;;;13.40;;
5010;SDS011;2524;54.364;10.072;2022-12-18T15:50:28;19.40;;;12.17;;
5010;SDS011;2524;54.364;10.072;2022-12-18T15:52:53;17.30;;;12.50;;
5010;SDS011;2524;54.364;10.072;2022-12-18T15:55:21;17.37;;;11.90;;
5010;SDS011;2524;54.364;10.072;2022-12-18T15:58:08;17.00;;;11.33;;
5010;SDS011;2524;54.364;10.072;2022-12-18T16:00:35;19.20;;;12.40;;
5010;SDS011;2524;54.364;10.072;2022-12-18T16:03:03;16.43;;;11.50;;
5010;SDS011;2524;54.364;10.072;2022-12-18T16:05:30;20.17;;;13.77;;
5010;SDS011;2524;54.364;10.072;2022-12-18T16:07:56;21.93;;;13.97;;
5010;SDS011;2524;54.364;10.072;2022-12-18T16:10:22;23.00;;;14.00;;
5010;SDS011;2524;54.364;10.072;2022-12-18T16:12:49;21.40;;;13.50;;
5010;SDS011;2524;54.364;10.072;2022-12-18T16:15:15;21.00;;;13.30;;
5010;SDS011;2524;54.364;10.072;2022-12-18T16:17:41;18.80;;;11.90;;
5010;SDS011;2524;54.364;10.072;2022-12-18T16:20:17;23.50;;;13.90;;
5010;SDS011;2524;54.364;10.072;2022-12-18T16:22:46;18.30;;;13.10;;
5010;SDS011;2524;54.364;10.072;2022-12-18T16:25:16;19.63;;;13.70;;
5010;SDS011;2524;54.364;10.072;2022-12-18T16:27:46;23.60;;;15.43;;
5010;SDS011;2524;54.364;10.072;2022-12-18T16:30:13;19.70;;;13.60;;
5010;SDS011;2524;54.364;10.072;2022-12-18T16:32:43;20.33;;;13.73;;
5010;SDS011;2524;54.364;10.072;2022-12-18T16:35:09;17.87;;;11.83;;
5010;SDS011;2524;54.364;10.072;2022-12-18T16:37:39;29.03;;;16.43;;
5010;SDS011;2524;54.364;10.072;2022-12-18T16:40:06;26.20;;;14.80;;
5010;SDS011;2524;54.364;10.072;2022-12-18T16:42:34;19.83;;;13.50;;
5010;SDS011;2524;54.364;10.072;2022-12-18T16:45:01;25.03;;;16.03;;
5010;SDS011;2524;54.364;10.072;2022-12-18T16:47:27;25.33;;;14.20;;
5010;SDS011;2524;54.364;10.072;2022-12-18T16:49:52;22.00;;;14.80;;
5010;SDS011;2524;54.364;10.072;2022-12-18T16:52:18;21.63;;;14.00;;
5010;SDS011;2524;54.364;10.072;2022-12-18T16:54:45;32.23;;;14.10;;
5010;SDS011;2524;54.364;10.072;2022-12-18T16:57:12;19.87;;;13.43;;
5010;SDS011;2524;54.364;10.072;2022-12-18T16:59:39;22.67;;;14.13;;
5010;SDS011;2524;54.364;10.072;2022-12-18T17:02:06;21.33;;;13.63;;